createdAt,value
2018-12-26T00:01:25.619Z,30.25
2018-12-26T00:03:56.760Z,29.32
2018-12-26T00:06:27.207Z,32.42
2018-12-26T00:08:57.654Z,30.72
2018-12-26T00:11:27.979Z,28.05
2018-12-26T00:13:58.332Z,28.20
2018-12-26T00:16:28.769Z,28.15
2018-12-26T00:18:59.240Z,32.10
2018-12-26T00:21:31.607Z,29.25
2018-12-26T00:24:02.033Z,32.88
2018-12-26T00:26:32.671Z,32.58
2018-12-26T00:29:03.061Z,32.28
2018-12-26T00:31:33.504Z,34.33
2018-12-26T00:34:04.060Z,34.73
2018-12-26T00:36:34.711Z,32.15
2018-12-26T00:39:07.402Z,33.65
2018-12-26T00:41:37.952Z,35.28
2018-12-26T00:44:09.523Z,35.25
2018-12-26T00:46:39.941Z,35.65
2018-12-26T00:49:22.716Z,37.00
2018-12-26T00:51:53.118Z,34.40
2018-12-26T00:54:23.779Z,35.05
2018-12-26T00:56:54.204Z,36.55
2018-12-26T00:59:24.550Z,36.73
2018-12-26T01:01:55.949Z,36.23
2018-12-26T01:04:26.906Z,32.13
2018-12-26T01:06:57.244Z,34.85
2018-12-26T01:09:27.989Z,36.35
2018-12-26T01:11:58.487Z,39.13
2018-12-26T01:14:29.057Z,34.10
2018-12-26T01:16:59.520Z,38.38
2018-12-26T01:19:30.239Z,36.77
2018-12-26T01:22:00.642Z,39.20
2018-12-26T01:24:31.095Z,36.88
2018-12-26T01:27:01.691Z,35.40
2018-12-26T01:29:32.211Z,36.98
2018-12-26T01:32:04.459Z,39.05
2018-12-26T01:34:34.809Z,34.40
2018-12-26T01:37:05.243Z,40.70
2018-12-26T01:39:35.970Z,41.15
2018-12-26T01:42:06.438Z,40.43
2018-12-26T01:44:36.879Z,39.05
2018-12-26T01:47:07.347Z,40.98
2018-12-26T01:49:37.755Z,40.98
2018-12-26T01:52:08.103Z,44.40
2018-12-26T01:54:40.189Z,42.65
2018-12-26T01:57:10.650Z,39.98
2018-12-26T01:59:41.083Z,40.05
2018-12-26T02:02:11.445Z,44.20
2018-12-26T02:04:42.738Z,46.75
2018-12-26T02:07:13.203Z,46.37
2018-12-26T02:09:44.307Z,40.00
2018-12-26T02:12:14.770Z,45.90
2018-12-26T02:14:45.203Z,46.80
2018-12-26T02:17:15.538Z,47.10
2018-12-26T02:19:46.478Z,47.43
2018-12-26T02:22:16.953Z,45.98
2018-12-26T02:24:47.381Z,45.45
2018-12-26T02:27:17.853Z,46.73
2018-12-26T02:29:48.319Z,49.23
2018-12-26T02:32:18.788Z,44.80
2018-12-26T02:34:49.154Z,46.28
2018-12-26T02:37:20.561Z,45.88
2018-12-26T02:39:51.079Z,48.38
2018-12-26T02:42:21.433Z,44.85
2018-12-26T02:44:52.403Z,46.10
2018-12-26T02:47:22.917Z,45.88
2018-12-26T02:49:53.639Z,44.05
2018-12-26T02:52:24.155Z,43.75
2018-12-26T02:54:54.776Z,48.10
2018-12-26T02:57:25.802Z,48.92
2018-12-26T02:59:56.175Z,49.15
2018-12-26T03:02:26.667Z,47.73
2018-12-26T03:04:57.572Z,54.60
2018-12-26T03:07:28.133Z,51.85
2018-12-26T03:09:58.461Z,51.85
2018-12-26T03:12:28.830Z,52.60
2018-12-26T03:14:59.251Z,57.83
2018-12-26T03:17:29.725Z,56.83
2018-12-26T03:20:00.156Z,54.25
2018-12-26T03:22:30.525Z,50.45
2018-12-26T03:25:01.455Z,54.65
2018-12-26T03:27:31.909Z,59.20
2018-12-26T03:30:02.828Z,60.35
2018-12-26T03:32:33.920Z,56.60
2018-12-26T03:35:04.452Z,61.33
2018-12-26T03:37:34.879Z,51.30
2018-12-26T03:40:06.295Z,57.03
2018-12-26T03:42:37.515Z,55.23
2018-12-26T03:45:08.111Z,51.55
2018-12-26T03:47:39.707Z,53.75
2018-12-26T03:50:12.055Z,52.15
2018-12-26T03:52:42.607Z,50.67
2018-12-26T03:55:13.156Z,53.63
2018-12-26T03:57:43.595Z,49.67
2018-12-26T04:00:14.197Z,54.15
2018-12-26T04:02:44.906Z,52.35
2018-12-26T04:05:15.713Z,63.45
2018-12-26T04:07:46.178Z,55.85
2018-12-26T04:10:16.938Z,53.40
2018-12-26T04:12:47.743Z,55.40
2018-12-26T04:15:19.978Z,56.85
2018-12-26T04:17:50.484Z,50.43
2018-12-26T04:20:21.341Z,54.08
2018-12-26T04:22:52.282Z,54.33
2018-12-26T04:25:22.923Z,50.25
2018-12-26T04:27:53.347Z,54.88
2018-12-26T04:30:23.798Z,50.85
2018-12-26T04:32:54.121Z,53.58
2018-12-26T04:35:24.457Z,62.90
2018-12-26T04:37:54.919Z,50.73
2018-12-26T04:40:25.556Z,51.37
2018-12-26T04:42:56.026Z,50.58
2018-12-26T04:45:26.344Z,54.80
2018-12-26T04:47:56.703Z,45.95
2018-12-26T04:50:27.145Z,46.02
2018-12-26T04:52:57.463Z,45.33
2018-12-26T04:55:28.438Z,46.58
2018-12-26T04:57:58.954Z,48.60
2018-12-26T05:00:29.333Z,44.83
2018-12-26T05:02:59.880Z,43.80
2018-12-26T05:05:30.439Z,43.33
2018-12-26T05:08:00.880Z,45.83
2018-12-26T05:10:31.328Z,40.23
2018-12-26T05:13:01.676Z,38.23
2018-12-26T05:15:32.179Z,44.73
2018-12-26T05:18:02.687Z,41.83
2018-12-26T05:20:33.175Z,37.20
2018-12-26T05:23:03.776Z,37.93
2018-12-26T05:25:34.207Z,39.67
2018-12-26T05:28:04.875Z,34.58
2018-12-26T05:30:35.307Z,35.10
2018-12-26T05:33:05.771Z,30.75
2018-12-26T05:35:37.020Z,32.15
2018-12-26T05:38:07.983Z,30.05
2018-12-26T05:40:38.306Z,30.12
2018-12-26T05:43:08.951Z,28.07
2018-12-26T05:45:39.442Z,25.82
2018-12-26T05:48:09.856Z,24.52
2018-12-26T05:50:40.307Z,24.60
2018-12-26T05:53:11.067Z,20.57
2018-12-26T05:55:41.494Z,20.12
2018-12-26T05:58:12.082Z,22.65
2018-12-26T06:00:42.681Z,20.40
2018-12-26T06:03:13.163Z,24.55
2018-12-26T06:05:44.276Z,23.70
2018-12-26T06:08:14.874Z,24.10
2018-12-26T06:10:45.291Z,21.35
2018-12-26T06:13:15.776Z,27.07
2018-12-26T06:15:46.185Z,22.27
2018-12-26T06:18:17.663Z,29.12
2018-12-26T06:20:47.991Z,23.85
2018-12-26T06:23:18.337Z,28.25
2018-12-26T06:25:48.791Z,27.02
2018-12-26T06:28:20.178Z,23.85
2018-12-26T06:30:50.610Z,27.90
2018-12-26T06:33:20.977Z,28.77
2018-12-26T06:35:51.375Z,25.55
2018-12-26T06:38:21.718Z,30.48
2018-12-26T06:40:52.175Z,29.85
2018-12-26T06:43:22.648Z,28.42
2018-12-26T06:45:52.962Z,25.57
2018-12-26T06:48:23.306Z,26.30
2018-12-26T06:50:54.057Z,24.87
2018-12-26T06:53:24.514Z,27.25
2018-12-26T06:55:55.221Z,23.22
2018-12-26T06:58:27.650Z,26.55
2018-12-26T07:00:57.995Z,24.27
2018-12-26T07:03:28.352Z,26.48
2018-12-26T07:05:59.438Z,26.48
2018-12-26T07:08:29.854Z,25.70
2018-12-26T07:11:01.408Z,26.95
2018-12-26T07:13:31.768Z,26.75
2018-12-26T07:16:02.377Z,25.52
2018-12-26T07:18:32.795Z,26.80
2018-12-26T07:21:03.333Z,26.65
2018-12-26T07:23:34.072Z,25.52
2018-12-26T07:26:04.539Z,24.92
2018-12-26T07:28:35.011Z,25.95
2018-12-26T07:31:05.369Z,21.17
2018-12-26T07:33:36.083Z,25.85
2018-12-26T07:36:07.189Z,23.50
2018-12-26T07:38:37.686Z,22.40
2018-12-26T07:41:09.600Z,21.68
2018-12-26T07:43:39.975Z,22.13
2018-12-26T07:46:12.855Z,23.40
2018-12-26T07:48:45.133Z,19.57
2018-12-26T07:51:21.031Z,21.15
2018-12-26T07:53:53.112Z,19.32
2018-12-26T07:56:24.572Z,21.48
2018-12-26T07:58:58.071Z,18.55
2018-12-26T08:01:29.728Z,16.45
2018-12-26T08:04:00.843Z,17.90
2018-12-26T08:06:32.987Z,15.60
2018-12-26T08:09:07.026Z,17.75
2018-12-26T08:11:38.038Z,17.73
2018-12-26T08:14:10.871Z,16.10
2018-12-26T08:16:42.033Z,16.05
2018-12-26T08:19:13.813Z,16.30
2018-12-26T08:21:49.563Z,16.67
2018-12-26T08:24:20.754Z,15.98
2018-12-26T08:26:53.622Z,18.05
2018-12-26T08:29:27.283Z,14.58
2018-12-26T08:31:58.376Z,17.52
2018-12-26T08:34:29.576Z,16.80
2018-12-26T08:37:00.310Z,17.23
2018-12-26T08:39:42.059Z,14.45
2018-12-26T08:42:15.343Z,16.80
2018-12-26T08:44:46.016Z,14.38
2018-12-26T08:47:18.167Z,15.35
2018-12-26T08:49:50.816Z,13.98
2018-12-26T08:52:23.107Z,13.43
2018-12-26T08:54:54.415Z,13.55
2018-12-26T08:57:29.248Z,17.37
2018-12-26T09:00:01.231Z,16.73
2018-12-26T09:02:33.344Z,15.35
2018-12-26T09:05:07.835Z,20.60
2018-12-26T09:07:40.368Z,17.48
2018-12-26T09:10:13.081Z,18.65
2018-12-26T09:12:44.029Z,15.68
2018-12-26T09:15:19.062Z,15.40
2018-12-26T09:17:51.035Z,16.25
2018-12-26T09:20:25.217Z,16.93
2018-12-26T09:22:58.158Z,16.02
2018-12-26T09:25:32.742Z,15.93
2018-12-26T09:28:05.255Z,14.33
2018-12-26T09:30:38.764Z,14.98
2018-12-26T09:33:09.455Z,13.78
2018-12-26T09:35:41.989Z,15.80
2018-12-26T09:38:12.680Z,16.42
2018-12-26T09:40:44.052Z,22.25
2018-12-26T09:43:17.746Z,39.42
2018-12-26T09:45:50.971Z,40.08
2018-12-26T09:48:23.731Z,51.45
2018-12-26T09:50:54.137Z,53.05
2018-12-26T09:53:26.823Z,55.00
2018-12-26T09:55:57.310Z,56.40
2018-12-26T09:58:27.730Z,57.75
2018-12-26T10:00:58.176Z,57.38
2018-12-26T10:03:28.502Z,49.98
2018-12-26T10:05:59.079Z,52.98
2018-12-26T10:08:30.260Z,49.95
2018-12-26T10:11:00.604Z,53.60
2018-12-26T10:13:30.959Z,48.13
2018-12-26T10:16:01.383Z,42.45
2018-12-26T10:18:32.679Z,43.02
2018-12-26T10:21:03.015Z,42.58
2018-12-26T10:23:33.432Z,42.88
2018-12-26T10:26:04.677Z,36.33
2018-12-26T10:28:35.007Z,37.35
2018-12-26T10:31:05.536Z,36.63
2018-12-26T10:33:35.879Z,39.98
2018-12-26T10:36:07.229Z,37.48
2018-12-26T10:38:37.607Z,34.48
2018-12-26T10:41:08.081Z,36.23
2018-12-26T10:43:38.406Z,33.23
2018-12-26T10:46:10.496Z,34.50
2018-12-26T10:48:40.931Z,36.65
2018-12-26T10:51:12.199Z,59.08
2018-12-26T10:53:44.543Z,37.35
2018-12-26T10:56:14.943Z,35.58
2018-12-26T10:58:45.577Z,36.65
2018-12-26T11:01:17.641Z,36.65
2018-12-26T11:03:48.140Z,38.67
2018-12-26T11:06:18.719Z,42.58
2018-12-26T11:08:49.810Z,42.13
2018-12-26T11:11:20.173Z,36.68
2018-12-26T11:13:50.632Z,39.23
2018-12-26T11:16:21.254Z,42.13
2018-12-26T11:18:52.012Z,40.40
2018-12-26T11:21:22.478Z,42.33
2018-12-26T11:23:53.103Z,40.75
2018-12-26T11:26:24.379Z,42.23
2018-12-26T11:28:55.638Z,39.35
2018-12-26T11:31:26.203Z,39.67
2018-12-26T11:33:56.671Z,41.58
2018-12-26T11:36:27.379Z,42.80
2018-12-26T11:38:57.836Z,43.23
2018-12-26T11:41:28.395Z,38.83
2018-12-26T11:44:02.926Z,37.73
2018-12-26T11:46:33.456Z,41.08
2018-12-26T11:49:03.887Z,37.10
2018-12-26T11:51:34.319Z,35.63
2018-12-26T11:54:04.691Z,34.88
2018-12-26T11:56:35.049Z,32.20
2018-12-26T11:59:05.413Z,33.10
2018-12-26T12:01:36.587Z,35.60
2018-12-26T12:04:07.108Z,35.95
2018-12-26T12:06:38.768Z,32.50
2018-12-26T12:09:10.540Z,28.00
2018-12-26T12:11:42.229Z,30.12
2018-12-26T12:14:12.606Z,30.90
2018-12-26T12:16:44.950Z,29.10
2018-12-26T12:19:15.435Z,26.30
2018-12-26T12:21:46.171Z,35.98
2018-12-26T12:24:16.579Z,33.55
2018-12-26T12:26:47.170Z,35.55
2018-12-26T12:29:17.586Z,37.70
2018-12-26T12:31:48.652Z,33.95
2018-12-26T12:34:19.296Z,34.73
2018-12-26T12:36:49.932Z,35.23
2018-12-26T12:39:21.250Z,30.23
2018-12-26T12:41:51.732Z,32.88
2018-12-26T12:44:22.226Z,33.02
2018-12-26T12:46:52.711Z,34.53
2018-12-26T12:49:23.320Z,32.98
2018-12-26T12:51:53.744Z,33.55
2018-12-26T12:54:24.247Z,37.55
2018-12-26T12:56:55.290Z,34.20
2018-12-26T12:59:25.742Z,33.10
2018-12-26T13:01:56.290Z,32.33
2018-12-26T13:04:27.698Z,30.55
2018-12-26T13:06:58.052Z,33.27
2018-12-26T13:09:28.449Z,32.50
2018-12-26T13:11:59.450Z,27.90
2018-12-26T13:14:30.576Z,30.15
2018-12-26T13:17:01.534Z,29.57
2018-12-26T13:19:35.327Z,30.92
2018-12-26T13:22:05.761Z,29.57
2018-12-26T13:24:36.251Z,28.02
2018-12-26T13:27:07.548Z,28.20
2018-12-26T13:29:37.936Z,26.73
2018-12-26T13:32:08.388Z,26.37
2018-12-26T13:34:38.735Z,28.10
2018-12-26T13:37:09.078Z,28.25
2018-12-26T13:39:39.536Z,23.15
2018-12-26T13:42:11.731Z,27.40
2018-12-26T13:44:43.291Z,28.50
2018-12-26T13:47:13.847Z,31.73
2018-12-26T13:49:44.265Z,28.83
2018-12-26T13:52:14.616Z,29.00
2018-12-26T13:54:45.035Z,28.47
2018-12-26T13:57:15.536Z,28.75
2018-12-26T13:59:45.967Z,25.15
2018-12-26T14:02:19.160Z,27.42
2018-12-26T14:04:52.997Z,27.70
2018-12-26T14:07:23.832Z,31.35
2018-12-26T14:09:54.991Z,29.42
2018-12-26T14:12:27.212Z,30.97
2018-12-26T14:14:57.641Z,29.60
2018-12-26T14:17:27.990Z,30.50
2018-12-26T14:19:58.433Z,32.93
2018-12-26T14:22:28.880Z,29.12
2018-12-26T14:24:59.321Z,28.90
2018-12-26T14:27:30.780Z,30.25
2018-12-26T14:30:01.200Z,28.73
2018-12-26T14:32:31.627Z,31.15
2018-12-26T14:35:02.089Z,31.73
2018-12-26T14:37:32.464Z,27.20
2018-12-26T14:40:03.040Z,29.20
2018-12-26T14:42:33.467Z,24.02
2018-12-26T14:45:04.072Z,26.85
2018-12-26T14:47:35.072Z,28.30
2018-12-26T14:50:06.185Z,26.05
2018-12-26T14:52:36.925Z,23.87
2018-12-26T14:55:07.475Z,25.27
2018-12-26T14:57:37.885Z,24.75
2018-12-26T15:00:08.693Z,26.73
2018-12-26T15:02:39.072Z,25.50
2018-12-26T15:05:09.505Z,24.98
2018-12-26T15:07:42.433Z,27.37
2018-12-26T15:10:14.190Z,27.32
2018-12-26T15:12:44.639Z,27.27
2018-12-26T15:15:15.894Z,26.82
2018-12-26T15:17:46.357Z,26.33
2018-12-26T15:20:16.776Z,27.98
2018-12-26T15:22:49.335Z,30.20
2018-12-26T15:25:21.264Z,25.45
2018-12-26T15:27:51.628Z,26.33
2018-12-26T15:30:28.543Z,29.63
2018-12-26T15:32:55.285Z,31.07
2018-12-26T15:35:25.692Z,32.13
2018-12-26T15:37:56.164Z,31.07
2018-12-26T15:40:28.877Z,30.70
2018-12-26T15:43:01.318Z,29.32
2018-12-26T15:45:33.612Z,31.37
2018-12-26T15:48:04.223Z,31.12
2018-12-26T15:50:34.619Z,31.65
2018-12-26T15:53:06.159Z,30.52
2018-12-26T15:55:36.525Z,32.78
2018-12-26T15:58:07.256Z,29.90
2018-12-26T16:00:37.894Z,32.58
2018-12-26T16:03:08.503Z,34.25
2018-12-26T16:05:38.923Z,31.62
2018-12-26T16:08:10.240Z,31.48
2018-12-26T16:10:42.623Z,31.12
2018-12-26T16:13:13.119Z,33.10
2018-12-26T16:15:43.628Z,33.30
2018-12-26T16:18:14.118Z,32.38
2018-12-26T16:20:44.612Z,32.33
2018-12-26T16:23:15.044Z,31.37
2018-12-26T16:25:46.265Z,32.15
2018-12-26T16:28:17.023Z,29.80
2018-12-26T16:30:47.458Z,30.85
2018-12-26T16:33:18.223Z,31.23
2018-12-26T16:35:48.553Z,30.75
2018-12-26T16:38:18.993Z,32.70
2018-12-26T16:40:49.422Z,31.90
2018-12-26T16:43:20.100Z,32.73
2018-12-26T16:45:50.542Z,30.65
2018-12-26T16:48:20.912Z,32.95
2018-12-26T16:50:51.991Z,31.17
2018-12-26T16:53:22.528Z,30.95
2018-12-26T16:55:53.183Z,30.43
2018-12-26T16:58:23.611Z,31.95
2018-12-26T17:00:55.191Z,30.35
2018-12-26T17:03:27.688Z,31.27
2018-12-26T17:05:58.143Z,32.20
2018-12-26T17:08:29.199Z,31.35
2018-12-26T17:11:00.399Z,29.07
2018-12-26T17:13:30.877Z,28.20
2018-12-26T17:16:01.324Z,29.15
2018-12-26T17:18:31.667Z,32.33
2018-12-26T17:21:02.254Z,29.98
2018-12-26T17:23:33.405Z,28.32
2018-12-26T17:26:03.863Z,28.05
2018-12-26T17:28:34.477Z,27.87
2018-12-26T17:31:04.936Z,28.80
2018-12-26T17:33:35.435Z,32.95
2018-12-26T17:36:05.887Z,30.52
2018-12-26T17:38:36.678Z,30.37
2018-12-26T17:41:07.139Z,26.82
2018-12-26T17:43:37.465Z,31.75
2018-12-26T17:46:08.674Z,31.85
2018-12-26T17:48:39.140Z,29.63
2018-12-26T17:51:13.920Z,28.52
2018-12-26T17:54:11.762Z,34.25
2018-12-26T17:57:04.040Z,30.10
2018-12-26T17:59:39.217Z,29.60
2018-12-26T18:02:14.342Z,30.55
2018-12-26T18:04:44.732Z,31.82
2018-12-26T18:07:15.165Z,30.32
2018-12-26T18:09:46.109Z,32.48
2018-12-26T18:12:17.496Z,33.42
2018-12-26T18:14:48.007Z,32.63
2018-12-26T18:17:18.520Z,32.40
2018-12-26T18:19:49.107Z,32.05
2018-12-26T18:22:19.675Z,34.85
2018-12-26T18:24:50.055Z,31.70
2018-12-26T18:27:20.475Z,33.85
2018-12-26T18:29:51.023Z,36.17
2018-12-26T18:32:21.481Z,35.70
2018-12-26T18:34:52.968Z,35.95
2018-12-26T18:37:24.015Z,39.00
2018-12-26T18:39:54.448Z,39.75
2018-12-26T18:42:24.977Z,34.98
2018-12-26T18:44:55.631Z,36.13
2018-12-26T18:47:26.097Z,37.20
2018-12-26T18:49:56.435Z,32.83
2018-12-26T18:52:27.492Z,41.05
2018-12-26T18:54:57.942Z,38.13
2018-12-26T18:57:28.454Z,34.53
2018-12-26T19:00:07.944Z,44.13
2018-12-26T19:02:42.062Z,37.55
2018-12-26T19:05:12.632Z,39.33
2018-12-26T19:07:43.480Z,38.28
2018-12-26T19:10:14.140Z,43.40
2018-12-26T19:12:44.577Z,40.70
2018-12-26T19:15:15.117Z,43.05
2018-12-26T19:17:45.981Z,44.80
2018-12-26T19:20:17.043Z,43.35
2018-12-26T19:22:47.636Z,41.95
2018-12-26T19:25:18.043Z,41.80
2018-12-26T19:27:48.585Z,43.08
2018-12-26T19:30:19.863Z,43.05
2018-12-26T19:32:50.359Z,42.17
2018-12-26T19:35:20.740Z,46.90
2018-12-26T19:37:51.271Z,43.92
2018-12-26T19:40:33.718Z,45.38
2018-12-26T19:43:04.196Z,44.27
2018-12-26T19:45:34.756Z,50.08
2018-12-26T19:48:05.148Z,40.55
2018-12-26T19:50:35.605Z,42.05
2018-12-26T19:53:06.011Z,41.75
2018-12-26T19:55:37.366Z,47.03
2018-12-26T19:58:07.841Z,47.25
2018-12-26T20:00:38.293Z,46.42
2018-12-26T20:03:10.243Z,42.78
2018-12-26T20:05:41.208Z,43.92
2018-12-26T20:08:14.962Z,42.98
2018-12-26T20:10:46.785Z,39.25
2018-12-26T20:13:17.419Z,45.92
2018-12-26T20:15:48.239Z,47.08
2018-12-26T20:18:18.679Z,42.25
2018-12-26T20:20:49.107Z,52.08
2018-12-26T20:23:19.563Z,48.95
2018-12-26T20:25:50.001Z,46.73
2018-12-26T20:28:20.449Z,47.58
2018-12-26T20:30:50.791Z,45.85
2018-12-26T20:33:21.312Z,46.85
2018-12-26T20:35:53.222Z,46.95
2018-12-26T20:38:24.584Z,48.73
2018-12-26T20:40:55.038Z,44.40
2018-12-26T20:43:25.540Z,51.80
2018-12-26T20:45:56.096Z,48.60
2018-12-26T20:48:27.220Z,48.92
2018-12-26T20:50:57.624Z,47.78
2018-12-26T20:53:28.097Z,49.63
2018-12-26T20:55:58.537Z,47.33
2018-12-26T20:58:31.875Z,47.95
2018-12-26T21:01:02.288Z,48.48
2018-12-26T21:03:32.715Z,47.23
2018-12-26T21:06:03.252Z,52.35
2018-12-26T21:08:35.054Z,51.48
2018-12-26T21:11:09.243Z,48.17
2018-12-26T21:13:41.155Z,49.13
2018-12-26T21:16:11.632Z,47.62
2018-12-26T21:18:42.081Z,46.37
2018-12-26T21:21:12.609Z,50.40
2018-12-26T21:23:43.819Z,48.73
2018-12-26T21:26:17.285Z,51.15
2018-12-26T21:28:47.786Z,49.55
2018-12-26T21:31:20.726Z,52.30
2018-12-26T21:33:52.192Z,50.45
2018-12-26T21:36:22.722Z,49.13
2018-12-26T21:38:56.766Z,47.98
2018-12-26T21:41:32.240Z,54.83
2018-12-26T21:44:02.653Z,52.05
2018-12-26T21:46:37.223Z,52.85
2018-12-26T21:49:07.643Z,52.75
2018-12-26T21:51:38.119Z,49.67
2018-12-26T21:54:10.263Z,48.63
2018-12-26T21:56:40.715Z,52.83
2018-12-26T21:59:17.099Z,51.68
2018-12-26T22:01:47.626Z,49.90
2018-12-26T22:04:20.737Z,47.05
2018-12-26T22:06:51.196Z,45.08
2018-12-26T22:09:23.343Z,49.58
2018-12-26T22:11:54.394Z,48.05
2018-12-26T22:14:24.762Z,44.33
2018-12-26T22:16:55.742Z,43.17
2018-12-26T22:19:26.171Z,45.88
2018-12-26T22:21:56.636Z,43.73
2018-12-26T22:24:27.304Z,47.15
2018-12-26T22:26:57.628Z,45.75
2018-12-26T22:29:28.050Z,43.48
2018-12-26T22:31:58.384Z,42.98
2018-12-26T22:34:29.863Z,45.28
2018-12-26T22:37:01.218Z,42.75
2018-12-26T22:39:31.575Z,45.38
2018-12-26T22:42:02.623Z,43.73
2018-12-26T22:44:32.986Z,44.20
2018-12-26T22:47:03.591Z,46.35
2018-12-26T22:49:34.003Z,42.73
2018-12-26T22:52:04.414Z,42.95
2018-12-26T22:54:34.739Z,40.98
2018-12-26T22:57:05.221Z,43.83
2018-12-26T22:59:35.990Z,43.90
2018-12-26T23:02:06.576Z,41.18
2018-12-26T23:04:38.022Z,43.17
2018-12-26T23:07:08.420Z,43.02
2018-12-26T23:09:38.745Z,41.37
2018-12-26T23:12:10.647Z,37.80
2018-12-26T23:14:41.099Z,38.85
2018-12-26T23:17:12.012Z,39.25
2018-12-26T23:19:42.935Z,37.10
2018-12-26T23:22:13.316Z,36.40
2018-12-26T23:24:44.005Z,39.33
2018-12-26T23:27:14.455Z,34.88
2018-12-26T23:29:46.664Z,36.48
2018-12-26T23:32:17.092Z,38.17
2018-12-26T23:34:47.452Z,37.90
2018-12-26T23:37:17.858Z,35.23
2018-12-26T23:39:48.212Z,38.02
2018-12-26T23:42:18.668Z,36.53
2018-12-26T23:44:49.817Z,34.70
2018-12-26T23:47:20.895Z,34.48
2018-12-26T23:49:51.213Z,34.85
2018-12-26T23:52:21.555Z,36.50
2018-12-26T23:54:52.027Z,33.98
2018-12-26T23:57:22.446Z,33.63
2018-12-26T23:59:52.914Z,34.35
